Time;durP1;ratioP1;P1;durP2;ratioP2;P2;SDS_P1;SDS_P2;PMS_P1;PMS_P2;Temp;Humidity;BMP_temperature;BMP_pressure;BME280_temperature;BME280_humidity;BME280_pressure;Samples;Min_cycle;Max_cycle;Signal;HPM_P1;HPM_P2
2022/10/20 00:00:17;;;;;;;10.13;6.43;;;8.10;99.90;;;;;;5049198;28;20072;-62
2022/10/20 00:02:43;;;;;;;9.77;5.95;;;8.10;99.90;;;;;;5049060;28;20047;-62
2022/10/20 00:05:09;;;;;;;10.15;6.00;;;8.10;99.90;;;;;;5049691;28;20041;-62
2022/10/20 00:07:34;;;;;;;9.95;6.28;;;8.10;99.90;;;;;;5049372;28;20417;-62
2022/10/20 00:10:00;;;;;;;10.52;6.05;;;8.00;99.90;;;;;;5049538;28;20045;-63
2022/10/20 00:12:25;;;;;;;10.10;6.05;;;8.00;99.90;;;;;;5049322;28;20037;-63
2022/10/20 00:14:51;;;;;;;13.15;6.22;;;8.00;99.90;;;;;;5048859;28;20401;-62
2022/10/20 00:17:16;;;;;;;10.70;6.10;;;7.90;99.90;;;;;;5048880;28;20195;-62
2022/10/20 00:19:42;;;;;;;10.13;5.60;;;7.90;99.90;;;;;;5048654;28;20112;-62
2022/10/20 00:22:07;;;;;;;12.40;7.00;;;7.90;99.90;;;;;;5048668;28;20098;-62
2022/10/20 00:24:33;;;;;;;9.02;6.00;;;7.90;99.90;;;;;;5048961;28;20101;-62
2022/10/20 00:26:59;;;;;;;9.05;6.22;;;7.90;99.90;;;;;;5048727;28;20036;-63
2022/10/20 00:29:24;;;;;;;9.82;5.82;;;7.80;99.90;;;;;;5048924;28;20086;-62
2022/10/20 00:31:50;;;;;;;10.23;5.88;;;7.80;99.90;;;;;;5049465;28;20124;-62
2022/10/20 00:34:15;;;;;;;8.93;5.90;;;7.80;99.90;;;;;;5049349;28;20056;-63
2022/10/20 00:36:41;;;;;;;10.82;6.18;;;7.70;99.90;;;;;;5049246;28;20037;-62
2022/10/20 00:39:06;;;;;;;10.32;5.97;;;7.70;99.90;;;;;;5049462;28;20040;-63
2022/10/20 00:41:33;;;;;;;9.40;6.13;;;7.70;99.90;;;;;;5049460;28;20156;-63
2022/10/20 00:44:23;;;;;;;9.85;5.68;;;7.70;99.90;;;;;;5049515;28;20067;-64
2022/10/20 00:46:48;;;;;;;10.32;5.95;;;7.70;99.90;;;;;;5038655;28;20063;-63
2022/10/20 00:49:20;;;;;;;10.38;5.68;;;7.70;99.90;;;;;;5048240;28;20112;-62
2022/10/20 00:51:47;;;;;;;10.18;6.63;;;7.70;99.90;;;;;;5049351;28;20040;-62
2022/10/20 00:54:17;;;;;;;10.18;5.80;;;7.60;99.90;;;;;;5048933;28;20051;-62
2022/10/20 00:56:46;;;;;;;9.75;6.07;;;7.60;99.90;;;;;;5048383;28;20041;-62
2022/10/20 00:59:15;;;;;;;11.10;6.60;;;7.60;99.90;;;;;;5049029;28;20045;-62
2022/10/20 01:01:42;;;;;;;8.35;5.65;;;7.60;99.90;;;;;;5049606;28;20377;-62
2022/10/20 01:04:07;;;;;;;10.15;6.13;;;7.60;99.90;;;;;;5049550;28;20090;-63
2022/10/20 01:06:33;;;;;;;11.93;6.13;;;7.60;99.90;;;;;;5050071;28;20044;-63
2022/10/20 01:08:59;;;;;;;8.95;5.90;;;7.60;99.90;;;;;;5052451;28;20037;-64
2022/10/20 01:11:31;;;;;;;9.05;5.82;;;7.50;99.90;;;;;;5053015;28;20077;-63
2022/10/20 01:14:15;;;;;;;10.60;5.70;;;7.50;99.90;;;;;;5052681;28;20629;-63
2022/10/20 01:17:13;;;;;;;8.93;5.90;;;7.60;99.90;;;;;;5052560;28;20090;-61
2022/10/20 01:19:57;;;;;;;8.13;5.72;;;7.50;99.90;;;;;;5052446;28;20413;-62
2022/10/20 01:22:31;;;;;;;9.55;6.25;;;7.50;99.90;;;;;;5052761;28;20040;-64
2022/10/20 01:24:57;;;;;;;;;;;7.50;99.90;;;;;;5051789;28;20035;-61
2022/10/20 01:27:34;;;;;;;9.02;6.25;;;7.50;99.90;;;;;;5052189;28;20365;-63
2022/10/20 01:30:20;;;;;;;7.93;5.47;;;7.40;99.90;;;;;;5051079;28;20054;-62
2022/10/20 01:32:58;;;;;;;8.35;5.80;;;7.50;99.90;;;;;;5051975;28;20045;-62
2022/10/20 01:35:42;;;;;;;8.27;5.95;;;7.50;99.90;;;;;;5052059;28;20399;-63
2022/10/20 01:38:14;;;;;;;10.57;6.03;;;7.50;99.90;;;;;;5052425;28;20078;-62
2022/10/20 01:41:03;;;;;;;10.15;6.00;;;7.50;99.90;;;;;;5052084;28;20098;-62
2022/10/20 01:43:34;;;;;;;8.55;5.40;;;7.50;99.90;;;;;;5051972;28;20695;-63
2022/10/20 01:46:01;;;;;;;9.18;5.82;;;7.40;99.90;;;;;;5051590;28;20110;-62
2022/10/20 01:48:31;;;;;;;10.18;6.00;;;7.40;99.90;;;;;;5050996;28;20037;-62
2022/10/20 01:50:58;;;;;;;9.60;5.95;;;7.40;99.90;;;;;;5052058;28;20056;-63
2022/10/20 01:53:23;;;;;;;10.73;6.40;;;7.40;99.90;;;;;;5051721;28;20637;-63
2022/10/20 01:55:51;;;;;;;8.35;5.82;;;7.40;99.90;;;;;;5051483;28;20037;-62
2022/10/20 01:58:36;;;;;;;10.77;5.93;;;7.40;99.90;;;;;;5051527;28;20469;-63
2022/10/20 02:01:20;;;;;;;11.23;6.25;;;7.40;99.90;;;;;;5051799;28;20099;-62
2022/10/20 02:03:55;;;;;;;9.13;5.88;;;7.40;99.90;;;;;;5051931;28;20052;-62
2022/10/20 02:06:35;;;;;;;10.70;6.10;;;7.40;99.90;;;;;;5051244;28;20359;-62
2022/10/20 02:09:05;;;;;;;8.98;5.75;;;7.30;99.90;;;;;;5051238;28;20059;-64
2022/10/20 02:11:47;;;;;;;9.57;5.60;;;7.40;99.90;;;;;;5051656;28;20076;-62
2022/10/20 02:14:15;;;;;;;8.35;6.10;;;7.40;99.90;;;;;;5051551;28;20075;-61
2022/10/20 02:16:47;;;;;;;7.57;5.63;;;7.30;99.90;;;;;;5051245;28;20132;-62
2022/10/20 02:19:15;;;;;;;10.23;6.15;;;7.40;99.90;;;;;;5050289;28;20048;-61
2022/10/20 02:21:41;;;;;;;8.10;5.72;;;7.30;99.90;;;;;;5051539;28;20037;-62
2022/10/20 02:24:08;;;;;;;11.80;6.38;;;7.30;99.90;;;;;;5050748;28;20040;-62
2022/10/20 02:26:36;;;;;;;10.40;5.50;;;7.30;99.90;;;;;;5050399;28;20075;-63
2022/10/20 02:29:10;;;;;;;8.30;5.55;;;7.30;99.90;;;;;;5050581;28;20396;-62
2022/10/20 02:31:36;;;;;;;11.80;6.03;;;7.30;99.90;;;;;;5050483;28;20489;-63
2022/10/20 02:34:02;;;;;;;9.68;6.07;;;7.20;99.90;;;;;;5051271;28;20283;-61
2022/10/20 02:36:29;;;;;;;9.35;5.28;;;7.20;99.90;;;;;;5050679;28;20088;-62
2022/10/20 02:38:55;;;;;;;9.15;6.13;;;7.20;99.90;;;;;;5050791;28;20094;-62
2022/10/20 02:41:20;;;;;;;9.70;5.88;;;7.20;99.90;;;;;;5051076;28;20041;-62
2022/10/20 02:43:46;;;;;;;7.80;5.55;;;7.20;99.90;;;;;;5049829;28;20080;-62
2022/10/20 02:46:12;;;;;;;8.98;5.97;;;7.30;99.90;;;;;;5051004;28;20067;-62
2022/10/20 02:48:37;;;;;;;9.50;5.93;;;7.20;99.90;;;;;;5050775;28;20055;-62
2022/10/20 02:51:06;;;;;;;8.57;5.35;;;7.30;99.90;;;;;;5051143;28;20058;-62
2022/10/20 02:53:32;;;;;;;10.68;5.97;;;7.20;99.90;;;;;;5050751;28;20044;-62
2022/10/20 02:55:58;;;;;;;13.75;6.15;;;7.20;99.90;;;;;;5050142;28;20072;-62
2022/10/20 02:58:24;;;;;;;10.00;6.05;;;7.20;99.90;;;;;;5050883;28;20170;-65
2022/10/20 03:00:50;;;;;;;12.20;5.97;;;7.20;99.90;;;;;;5051013;28;20158;-62
2022/10/20 03:03:17;;;;;;;8.27;6.00;;;7.20;99.90;;;;;;5050942;28;20410;-62
2022/10/20 03:05:43;;;;;;;7.95;5.63;;;7.20;99.90;;;;;;5050471;28;20099;-63
2022/10/20 03:08:10;;;;;;;9.40;5.90;;;7.20;99.90;;;;;;5050666;28;20197;-62
2022/10/20 03:10:37;;;;;;;9.57;6.32;;;7.20;99.90;;;;;;5050813;28;20052;-62
2022/10/20 03:13:06;;;;;;;10.18;5.80;;;7.20;99.90;;;;;;5050473;28;20099;-62
2022/10/20 03:15:32;;;;;;;8.85;5.82;;;7.20;99.90;;;;;;5050286;28;20249;-62
2022/10/20 03:17:57;;;;;;;10.23;5.85;;;7.20;99.90;;;;;;5050338;28;20059;-62
2022/10/20 03:20:23;;;;;;;8.13;6.10;;;7.20;99.90;;;;;;5050530;28;20041;-62
2022/10/20 03:22:48;;;;;;;8.45;6.10;;;7.20;99.90;;;;;;5050237;28;20084;-62
2022/10/20 03:25:14;;;;;;;9.75;6.35;;;7.20;99.90;;;;;;5050196;28;20033;-62
2022/10/20 03:27:40;;;;;;;12.20;7.00;;;7.20;99.90;;;;;;5050402;28;20045;-61
2022/10/20 03:30:06;;;;;;;9.55;6.13;;;7.20;99.90;;;;;;5036274;28;20037;-63
2022/10/20 03:32:31;;;;;;;10.85;6.35;;;7.20;99.90;;;;;;5050105;28;20037;-62
2022/10/20 03:34:57;;;;;;;9.07;5.65;;;7.20;99.90;;;;;;5049897;28;20289;-62
2022/10/20 03:37:23;;;;;;;8.32;6.35;;;7.20;99.90;;;;;;5050251;28;20076;-62
2022/10/20 03:39:48;;;;;;;9.93;6.28;;;7.20;99.90;;;;;;5049681;28;20055;-62
2022/10/20 03:42:14;;;;;;;9.77;6.05;;;7.20;99.90;;;;;;5049442;28;20060;-62
2022/10/20 03:44:39;;;;;;;8.40;6.07;;;7.20;99.90;;;;;;5050248;28;20045;-62
2022/10/20 03:47:05;;;;;;;11.52;6.60;;;7.20;99.90;;;;;;5048435;28;20048;-64
2022/10/20 03:49:32;;;;;;;8.32;6.18;;;7.20;99.90;;;;;;5050010;28;20068;-62
2022/10/20 03:51:58;;;;;;;9.48;6.38;;;7.20;99.90;;;;;;5049977;28;20496;-63
2022/10/20 03:54:24;;;;;;;10.30;6.20;;;7.20;99.90;;;;;;5049977;28;20033;-63
2022/10/20 03:56:50;;;;;;;10.25;6.30;;;7.20;99.90;;;;;;5049585;28;20436;-62
2022/10/20 03:59:15;;;;;;;11.32;6.38;;;7.20;99.90;;;;;;5049439;28;20044;-63
2022/10/20 04:01:44;;;;;;;8.68;6.20;;;7.30;99.90;;;;;;5050159;28;20033;-63
2022/10/20 04:04:10;;;;;;;10.90;6.47;;;7.30;99.90;;;;;;5050022;28;20048;-62
2022/10/20 04:06:35;;;;;;;9.57;6.60;;;7.30;99.90;;;;;;5049667;28;20033;-64
2022/10/20 04:09:01;;;;;;;9.90;6.47;;;7.30;99.90;;;;;;5049721;28;20398;-63
2022/10/20 04:11:27;;;;;;;8.38;6.20;;;7.30;99.90;;;;;;5049705;28;20049;-63
2022/10/20 04:13:53;;;;;;;7.53;6.28;;;7.30;99.90;;;;;;5049966;28;20039;-62
2022/10/20 04:16:19;;;;;;;12.85;6.97;;;7.30;99.90;;;;;;5049536;28;20056;-62
2022/10/20 04:18:44;;;;;;;9.68;7.07;;;7.30;99.90;;;;;;5049661;28;20037;-62
2022/10/20 04:21:10;;;;;;;11.50;7.43;;;7.30;99.90;;;;;;5048458;28;20079;-62
2022/10/20 04:23:36;;;;;;;12.20;6.90;;;7.30;99.90;;;;;;5049869;28;20029;-63
2022/10/20 04:26:12;;;;;;;10.48;6.75;;;7.30;99.90;;;;;;5049500;28;20095;-62
2022/10/20 04:28:38;;;;;;;9.60;7.07;;;7.30;99.90;;;;;;5049654;28;20513;-62
2022/10/20 04:31:04;;;;;;;9.50;7.10;;;7.40;99.90;;;;;;5049386;28;20041;-62
2022/10/20 04:33:30;;;;;;;8.80;7.32;;;7.40;99.90;;;;;;5031667;28;20072;-63
2022/10/20 04:36:07;;;;;;;11.50;8.07;;;7.30;99.90;;;;;;5048947;28;20037;-62
2022/10/20 04:38:34;;;;;;;11.32;7.43;;;7.30;99.90;;;;;;5048959;28;20067;-64
2022/10/20 04:41:03;;;;;;;11.32;7.68;;;7.30;99.90;;;;;;5049117;28;20033;-62
2022/10/20 04:43:29;;;;;;;11.15;7.60;;;7.30;99.90;;;;;;5053261;28;20045;-63
2022/10/20 04:46:02;;;;;;;10.90;8.10;;;7.20;99.90;;;;;;5052790;28;20633;-63
2022/10/20 04:48:28;;;;;;;11.57;7.85;;;7.20;99.90;;;;;;5052916;28;20047;-63
2022/10/20 04:51:08;;;;;;;10.85;8.65;;;7.20;99.90;;;;;;5034582;28;20049;-63
2022/10/20 04:53:34;;;;;;;11.95;8.88;;;7.20;99.90;;;;;;5052090;28;20087;-62
2022/10/20 04:56:01;;;;;;;11.07;8.20;;;7.20;99.90;;;;;;5051634;28;20435;-62
2022/10/20 04:58:27;;;;;;;13.25;8.95;;;7.20;99.90;;;;;;5051852;28;20047;-63
2022/10/20 05:00:52;;;;;;;13.18;9.30;;;7.20;99.90;;;;;;5051391;28;20420;-64
2022/10/20 05:03:18;;;;;;;11.32;9.00;;;7.20;99.90;;;;;;5051806;28;20041;-62
2022/10/20 05:05:46;;;;;;;12.65;9.25;;;7.20;99.90;;;;;;5051599;28;20124;-63
2022/10/20 05:08:11;;;;;;;11.60;9.73;;;7.20;99.90;;;;;;5049163;28;20072;-62
2022/10/20 05:10:37;;;;;;;13.57;9.25;;;7.20;99.90;;;;;;5051915;28;20079;-63
2022/10/20 05:13:03;;;;;;;11.65;10.10;;;7.20;99.90;;;;;;5052251;28;20036;-62
2022/10/20 05:15:28;;;;;;;11.23;10.02;;;7.20;99.90;;;;;;5050582;28;20099;-63
2022/10/20 05:17:54;;;;;;;14.07;10.15;;;7.20;99.90;;;;;;5052574;28;20450;-62
2022/10/20 05:20:20;;;;;;;13.10;10.63;;;7.30;99.90;;;;;;5052340;28;20468;-62
2022/10/20 05:22:45;;;;;;;11.73;10.05;;;7.30;99.90;;;;;;5051629;28;20338;-63
2022/10/20 05:25:11;;;;;;;12.43;10.52;;;7.20;99.90;;;;;;5051489;28;20081;-61
2022/10/20 05:27:36;;;;;;;13.48;10.68;;;7.20;99.90;;;;;;5051535;28;20136;-62
2022/10/20 05:30:02;;;;;;;11.52;10.05;;;7.20;99.90;;;;;;5050983;28;20137;-62
2022/10/20 05:32:28;;;;;;;12.50;11.05;;;7.20;99.90;;;;;;5051736;28;20053;-63
2022/10/20 05:34:54;;;;;;;14.13;11.38;;;7.20;99.90;;;;;;5051500;28;20267;-63
2022/10/20 05:37:19;;;;;;;13.60;11.45;;;7.20;99.90;;;;;;5051827;28;20048;-63
2022/10/20 05:39:45;;;;;;;13.10;11.30;;;7.20;99.90;;;;;;5052415;28;20358;-63
2022/10/20 05:42:11;;;;;;;13.00;11.25;;;7.20;99.90;;;;;;5051927;28;20060;-63
2022/10/20 05:44:36;;;;;;;14.38;11.48;;;7.20;99.90;;;;;;5052484;28;20106;-63
2022/10/20 05:47:02;;;;;;;14.70;11.15;;;7.20;99.90;;;;;;5052221;28;20128;-63
2022/10/20 05:49:28;;;;;;;16.10;11.23;;;7.10;99.90;;;;;;5051112;28;20048;-64
2022/10/20 05:51:53;;;;;;;15.13;11.18;;;7.20;99.90;;;;;;5050772;28;20121;-64
2022/10/20 05:54:19;;;;;;;12.98;11.20;;;7.20;99.90;;;;;;5048339;28;20037;-63
2022/10/20 05:56:44;;;;;;;15.85;11.70;;;7.20;99.90;;;;;;5051079;28;20032;-64
2022/10/20 05:59:11;;;;;;;13.38;11.98;;;7.20;99.90;;;;;;5050839;28;20399;-62
2022/10/20 06:01:46;;;;;;;12.88;11.68;;;7.20;99.90;;;;;;5050210;28;20130;-63
2022/10/20 06:04:14;;;;;;;14.45;11.85;;;7.10;99.90;;;;;;5046448;28;20055;-63
2022/10/20 06:06:40;;;;;;;15.20;12.32;;;7.20;99.90;;;;;;5051791;28;20210;-62
2022/10/20 06:09:07;;;;;;;13.75;12.35;;;7.10;99.90;;;;;;5049634;28;20178;-64
2022/10/20 06:11:34;;;;;;;13.73;12.25;;;7.20;99.90;;;;;;5051057;28;20056;-63
2022/10/20 06:13:59;;;;;;;15.20;12.68;;;7.10;99.90;;;;;;5050690;28;20102;-65
2022/10/20 06:16:26;;;;;;;16.70;12.45;;;7.20;99.90;;;;;;5051292;28;20396;-65
2022/10/20 06:18:52;;;;;;;13.73;12.32;;;7.20;99.90;;;;;;5051205;28;20037;-64
2022/10/20 06:21:24;;;;;;;13.98;12.48;;;7.20;99.90;;;;;;5051233;28;20039;-64
2022/10/20 06:23:51;;;;;;;15.65;12.35;;;7.20;99.90;;;;;;5051129;28;20052;-64
2022/10/20 06:26:24;;;;;;;14.45;12.02;;;7.20;99.90;;;;;;5050219;28;20064;-64
2022/10/20 06:28:52;;;;;;;15.32;12.57;;;7.30;99.90;;;;;;5049972;28;20040;-66
2022/10/20 06:31:40;;;;;;;15.27;13.63;;;7.20;99.90;;;;;;5048688;28;20734;-64
2022/10/20 06:34:07;;;;;;;13.85;12.43;;;7.30;99.90;;;;;;5031775;28;20069;-65
2022/10/20 06:36:36;;;;;;;15.27;12.75;;;7.30;99.90;;;;;;5049031;28;20370;-63
2022/10/20 06:39:03;;;;;;;16.00;12.35;;;7.30;99.90;;;;;;5049904;28;20048;-63
2022/10/20 06:41:29;;;;;;;14.93;12.73;;;7.30;99.90;;;;;;5049927;28;20063;-64
2022/10/20 06:43:58;;;;;;;14.75;12.27;;;7.40;99.90;;;;;;5049742;28;20178;-63
2022/10/20 06:46:27;;;;;;;15.15;12.75;;;7.40;99.90;;;;;;5049571;28;20042;-63
2022/10/20 06:48:53;;;;;;;14.15;12.65;;;7.40;99.90;;;;;;5047617;28;20032;-66
2022/10/20 06:51:20;;;;;;;14.05;12.30;;;7.40;99.90;;;;;;5049757;28;20047;-63
2022/10/20 06:53:47;;;;;;;14.27;12.77;;;7.40;99.90;;;;;;5049958;28;20045;-63
2022/10/20 06:56:18;;;;;;;13.73;12.30;;;7.40;99.90;;;;;;5049805;28;20339;-63
2022/10/20 06:58:47;;;;;;;13.68;12.13;;;7.40;99.90;;;;;;5050472;28;20033;-65
2022/10/20 07:01:13;;;;;;;14.27;12.88;;;7.50;99.90;;;;;;5050808;28;20080;-63
2022/10/20 07:03:40;;;;;;;14.00;12.50;;;7.50;99.90;;;;;;5049085;28;20045;-63
2022/10/20 07:06:07;;;;;;;13.63;12.18;;;7.50;99.90;;;;;;5050112;28;20068;-64
2022/10/20 07:08:34;;;;;;;15.75;12.15;;;7.50;99.90;;;;;;5050495;28;20045;-63
2022/10/20 07:11:01;;;;;;;15.82;12.77;;;7.60;99.90;;;;;;5049004;28;20040;-63
2022/10/20 07:13:28;;;;;;;16.17;13.18;;;7.60;99.90;;;;;;5050551;28;20624;-64
2022/10/20 07:15:55;;;;;;;15.98;12.25;;;7.60;99.90;;;;;;5049883;28;20041;-64
2022/10/20 07:18:21;;;;;;;15.63;12.63;;;7.60;99.90;;;;;;5050117;28;20076;-63
2022/10/20 07:20:47;;;;;;;14.52;11.82;;;7.60;99.90;;;;;;5050108;28;20087;-64
2022/10/20 07:23:12;;;;;;;13.98;12.63;;;7.60;99.90;;;;;;5050266;28;20068;-63
2022/10/20 07:25:38;;;;;;;14.38;12.85;;;7.60;99.90;;;;;;5050131;28;20474;-63
2022/10/20 07:28:03;;;;;;;13.40;12.07;;;7.70;99.90;;;;;;5049945;28;20103;-63
2022/10/20 07:30:29;;;;;;;15.90;12.93;;;7.70;99.90;;;;;;5050300;28;20028;-65
2022/10/20 07:32:54;;;;;;;13.68;12.20;;;7.80;99.90;;;;;;5050228;28;20025;-63
2022/10/20 07:35:20;;;;;;;20.85;15.10;;;7.70;99.90;;;;;;5049958;28;20458;-64
2022/10/20 07:37:46;;;;;;;21.38;17.13;;;7.80;99.90;;;;;;5050059;28;20381;-63
2022/10/20 07:40:11;;;;;;;22.70;18.02;;;7.80;99.90;;;;;;5050081;28;20040;-63
2022/10/20 07:42:37;;;;;;;23.13;18.60;;;7.90;99.90;;;;;;5048803;28;20705;-63
2022/10/20 07:45:03;;;;;;;26.05;17.73;;;7.90;99.90;;;;;;5049735;28;20045;-63
2022/10/20 07:47:29;;;;;;;20.13;16.83;;;7.90;99.90;;;;;;5049395;28;20049;-64
2022/10/20 07:49:54;;;;;;;19.92;16.73;;;8.00;99.90;;;;;;5049379;28;20412;-64
2022/10/20 07:52:20;;;;;;;24.08;15.85;;;8.00;99.90;;;;;;5047227;28;20084;-63
2022/10/20 07:54:45;;;;;;;21.35;17.13;;;8.10;99.90;;;;;;5048595;28;20047;-64
2022/10/20 07:57:11;;;;;;;21.02;16.23;;;8.20;99.90;;;;;;5049754;28;20461;-63
2022/10/20 07:59:36;;;;;;;21.40;16.05;;;8.20;99.90;;;;;;5049848;28;20468;-64
2022/10/20 08:02:02;;;;;;;21.08;15.70;;;8.30;99.90;;;;;;5050044;28;20037;-63
2022/10/20 08:04:30;;;;;;;22.73;17.48;;;8.30;99.90;;;;;;5048940;28;20355;-63
2022/10/20 08:06:56;;;;;;;19.88;15.88;;;8.50;99.90;;;;;;5049358;28;20110;-63
2022/10/20 08:09:22;;;;;;;18.60;14.50;;;8.40;99.90;;;;;;5048768;28;20117;-63
2022/10/20 08:11:48;;;;;;;15.55;13.27;;;8.50;99.90;;;;;;5048418;28;20485;-64
2022/10/20 08:14:14;;;;;;;15.63;13.45;;;8.60;99.90;;;;;;5049094;28;20041;-64
2022/10/20 08:16:39;;;;;;;16.23;12.60;;;8.70;99.90;;;;;;5051227;28;20416;-63
2022/10/20 08:19:05;;;;;;;17.05;13.98;;;8.70;99.90;;;;;;5052592;28;20048;-64
2022/10/20 08:21:31;;;;;;;18.45;13.85;;;8.80;99.90;;;;;;5052193;28;20090;-64
2022/10/20 08:23:57;;;;;;;17.52;13.52;;;8.80;99.90;;;;;;5052765;28;20051;-65
2022/10/20 08:26:24;;;;;;;16.05;13.23;;;9.00;99.90;;;;;;5053449;28;20464;-64
2022/10/20 08:28:52;;;;;;;18.67;13.05;;;9.00;99.90;;;;;;5052022;28;20452;-63
2022/10/20 08:31:19;;;;;;;14.93;13.07;;;9.10;99.90;;;;;;5053339;28;20450;-63
2022/10/20 08:33:44;;;;;;;16.02;12.85;;;9.20;99.90;;;;;;5053051;28;20052;-63
2022/10/20 08:36:12;;;;;;;14.98;12.50;;;9.30;99.90;;;;;;5053432;28;20045;-64
2022/10/20 08:38:38;;;;;;;16.45;12.98;;;9.40;99.90;;;;;;5053528;28;20087;-63
2022/10/20 08:41:11;;;;;;;15.98;12.43;;;9.50;99.90;;;;;;5053230;28;20056;-64
2022/10/20 08:43:40;;;;;;;15.20;11.55;;;9.60;99.90;;;;;;5053236;28;20076;-63
2022/10/20 08:46:05;;;;;;;15.73;11.73;;;9.70;99.90;;;;;;5052613;28;20385;-64
2022/10/20 08:48:33;;;;;;;12.77;11.18;;;9.70;99.90;;;;;;5052977;28;20128;-63
2022/10/20 08:50:59;;;;;;;12.20;10.95;;;9.70;99.90;;;;;;5051225;28;20049;-65
2022/10/20 08:53:26;;;;;;;25.13;11.10;;;9.80;99.90;;;;;;5052035;28;20080;-64
2022/10/20 08:55:53;;;;;;;12.68;10.15;;;9.80;99.90;;;;;;5052317;28;20040;-63
2022/10/20 08:58:21;;;;;;;14.45;10.52;;;9.80;99.90;;;;;;5052857;28;20425;-64
2022/10/20 09:00:49;;;;;;;13.63;10.88;;;9.90;99.90;;;;;;5052933;28;20406;-63
2022/10/20 09:03:18;;;;;;;11.10;9.77;;;10.00;99.90;;;;;;5052658;28;20041;-64
2022/10/20 09:05:46;;;;;;;12.27;10.60;;;10.00;99.90;;;;;;5047706;28;20037;-64
2022/10/20 09:08:12;;;;;;;11.40;10.07;;;10.10;99.90;;;;;;5052281;28;20460;-63
2022/10/20 09:10:42;;;;;;;13.55;9.75;;;10.10;99.90;;;;;;5052634;28;20140;-61
2022/10/20 09:13:19;;;;;;;11.65;10.00;;;10.20;99.90;;;;;;5052236;28;20029;-61
2022/10/20 09:15:47;;;;;;;14.98;10.52;;;10.30;99.90;;;;;;5052019;28;20045;-60
2022/10/20 09:18:14;;;;;;;11.75;9.57;;;10.30;99.90;;;;;;5039841;28;20037;-61
2022/10/20 09:20:54;;;;;;;12.70;10.07;;;10.40;99.90;;;;;;5052718;28;20073;-63
2022/10/20 09:23:26;;;;;;;13.80;10.18;;;10.50;99.90;;;;;;5040022;28;20033;-61
2022/10/20 09:25:52;;;;;;;13.13;9.55;;;10.60;99.90;;;;;;5052007;28;20040;-62
2022/10/20 09:28:23;;;;;;;11.65;9.55;;;10.70;99.90;;;;;;5050750;28;20048;-62
2022/10/20 09:30:49;;;;;;;11.90;9.88;;;10.70;99.90;;;;;;5051003;28;20068;-61
2022/10/20 09:33:32;;;;;;;11.73;9.48;;;10.80;99.90;;;;;;5051824;28;20068;-61
2022/10/20 09:36:14;;;;;;;13.05;10.27;;;10.80;99.90;;;;;;5051282;28;20206;-61
2022/10/20 09:38:46;;;;;;;12.77;9.32;;;11.00;99.90;;;;;;5050588;28;20033;-64
2022/10/20 09:41:16;;;;;;;12.38;9.70;;;11.10;99.90;;;;;;5051532;28;20064;-61
2022/10/20 09:43:53;;;;;;;11.80;9.15;;;11.20;99.90;;;;;;5050038;28;20630;-61
2022/10/20 09:46:25;;;;;;;11.38;8.98;;;11.30;99.90;;;;;;5050244;28;20131;-61
2022/10/20 09:48:51;;;;;;;10.70;8.30;;;11.40;99.90;;;;;;5051577;28;20105;-62
2022/10/20 09:51:23;;;;;;;13.38;9.65;;;11.50;99.90;;;;;;5051674;28;20033;-61
2022/10/20 09:54:02;;;;;;;14.73;8.82;;;11.60;99.90;;;;;;5049900;28;20045;-61
2022/10/20 09:56:32;;;;;;;9.75;8.30;;;11.70;99.90;;;;;;5051785;28;20084;-61
2022/10/20 09:59:00;;;;;;;9.20;8.27;;;11.80;99.90;;;;;;5049865;28;20041;-61
2022/10/20 10:01:26;;;;;;;9.23;8.25;;;12.00;99.90;;;;;;5051471;28;20131;-63
2022/10/20 10:04:03;;;;;;;10.27;8.27;;;12.10;99.90;;;;;;5051352;28;20272;-60
2022/10/20 10:06:38;;;;;;;11.18;8.27;;;12.30;99.90;;;;;;5051195;28;20627;-63
2022/10/20 10:09:23;;;;;;;12.50;7.80;;;12.30;99.90;;;;;;5050665;28;20450;-61
2022/10/20 10:11:59;;;;;;;9.90;7.80;;;12.40;99.90;;;;;;5033336;28;20053;-61
2022/10/20 10:14:26;;;;;;;10.60;8.00;;;12.30;99.90;;;;;;5047649;28;20040;-63
2022/10/20 10:16:51;;;;;;;9.93;7.75;;;12.30;99.90;;;;;;5050416;28;20045;-61
2022/10/20 10:19:21;;;;;;;10.07;7.97;;;12.30;99.90;;;;;;5050153;28;20522;-65
2022/10/20 10:21:51;;;;;;;9.85;8.02;;;12.50;99.90;;;;;;5049362;28;20433;-61
2022/10/20 10:24:28;;;;;;;10.75;7.93;;;12.60;99.90;;;;;;5050467;28;20102;-61
2022/10/20 10:26:55;;;;;;;11.60;8.10;;;12.60;99.90;;;;;;5049904;28;20403;-61
2022/10/20 10:29:25;;;;;;;11.10;8.60;;;12.60;99.90;;;;;;5049429;28;20548;-63
2022/10/20 10:32:07;;;;;;;9.23;8.23;;;12.70;99.90;;;;;;5041990;28;20052;-63
2022/10/20 10:34:53;;;;;;;11.35;7.68;;;12.70;99.90;;;;;;5044181;28;20048;-65
2022/10/20 10:37:18;;;;;;;10.63;7.60;;;12.80;99.90;;;;;;5040295;28;20041;-64
2022/10/20 10:39:45;;;;;;;12.52;8.25;;;12.90;99.90;;;;;;5050511;28;20044;-63
2022/10/20 10:42:37;;;;;;;10.00;8.90;;;12.90;99.90;;;;;;5050892;28;20049;-62
2022/10/20 10:45:15;;;;;;;15.48;9.20;;;13.00;99.90;;;;;;5050597;28;20064;-62
2022/10/20 10:47:58;;;;;;;11.73;8.90;;;13.00;99.90;;;;;;5050768;28;20124;-62
2022/10/20 10:50:44;;;;;;;9.65;8.45;;;13.00;99.90;;;;;;5045968;28;20132;-62
2022/10/20 10:53:37;;;;;;;13.13;8.55;;;13.10;99.90;;;;;;5050646;28;20055;-62
2022/10/20 10:56:14;;;;;;;10.00;8.07;;;13.10;99.90;;;;;;5050594;28;20140;-62
2022/10/20 10:58:57;;;;;;;9.90;8.55;;;13.10;99.90;;;;;;5050573;28;20043;-62
2022/10/20 11:01:40;;;;;;;9.90;8.00;;;13.10;99.90;;;;;;5038333;28;20041;-61
2022/10/20 11:04:33;;;;;;;9.55;8.55;;;13.10;99.90;;;;;;5050058;28;20032;-62
2022/10/20 11:07:29;;;;;;;10.38;8.40;;;13.00;99.90;;;;;;5050440;28;20052;-63
2022/10/20 11:10:09;;;;;;;9.63;8.73;;;13.00;99.90;;;;;;5046925;28;20064;-62
2022/10/20 11:13:09;;;;;;;11.73;8.63;;;13.00;99.90;;;;;;5050676;28;20037;-62
2022/10/20 11:15:49;;;;;;;12.00;8.32;;;13.00;99.90;;;;;;5042458;28;20442;-62
2022/10/20 11:18:26;;;;;;;10.90;9.00;;;13.00;99.90;;;;;;5046755;28;20151;-63
2022/10/20 11:21:10;;;;;;;11.68;8.57;;;12.90;99.90;;;;;;5050131;28;20478;-61
2022/10/20 11:23:50;;;;;;;10.32;9.25;;;12.90;99.90;;;;;;5048624;28;20032;-62
2022/10/20 11:26:33;;;;;;;11.68;8.82;;;13.00;99.90;;;;;;5050332;28;20513;-62
2022/10/20 11:29:05;;;;;;;11.27;8.80;;;13.00;99.90;;;;;;5040611;28;20044;-62
2022/10/20 11:31:50;;;;;;;14.20;10.95;;;13.00;99.90;;;;;;5048457;28;20476;-61
2022/10/20 11:34:31;;;;;;;10.98;8.95;;;13.00;99.90;;;;;;5049826;28;20054;-62
2022/10/20 11:37:22;;;;;;;10.65;9.55;;;13.00;99.90;;;;;;5046898;28;20371;-64
2022/10/20 11:40:10;;;;;;;11.13;9.23;;;12.90;99.90;;;;;;5050241;28;20584;-63
2022/10/20 11:42:49;;;;;;;11.43;9.80;;;12.90;99.90;;;;;;5048085;28;20183;-62
2022/10/20 11:45:23;;;;;;;10.93;8.75;;;12.90;99.90;;;;;;5049299;28;20128;-62
2022/10/20 11:47:52;;;;;;;;;;;12.90;99.90;;;;;;5050296;28;20136;-64
2022/10/20 11:50:18;;;;;;;12.02;9.35;;;12.90;99.90;;;;;;5049664;28;19924;-62
2022/10/20 11:53:13;;;;;;;12.52;10.10;;;12.90;99.90;;;;;;5049717;28;20098;-61
2022/10/20 11:56:00;;;;;;;12.65;10.90;;;12.90;99.90;;;;;;5045458;28;20386;-65
2022/10/20 11:58:31;;;;;;;12.38;10.88;;;12.80;99.90;;;;;;5049896;28;20041;-62
2022/10/20 12:01:24;;;;;;;13.35;9.75;;;12.80;99.90;;;;;;5049797;28;20608;-64
2022/10/20 12:04:01;;;;;;;12.70;9.75;;;12.80;99.90;;;;;;5049560;28;20033;-62
2022/10/20 12:06:51;;;;;;;13.60;10.93;;;12.80;99.90;;;;;;5038032;28;20068;-62
2022/10/20 12:09:54;;;;;;;13.77;11.07;;;12.80;99.90;;;;;;5049344;28;20480;-62
2022/10/20 12:12:32;;;;;;;14.40;11.50;;;12.80;99.90;;;;;;5049725;28;20045;-62
2022/10/20 12:15:02;;;;;;;13.70;11.13;;;12.70;99.90;;;;;;5049681;28;20037;-64
2022/10/20 12:17:40;;;;;;;14.73;11.82;;;12.70;99.90;;;;;;5049841;28;20049;-65
2022/10/20 12:20:21;;;;;;;16.27;12.82;;;12.70;99.90;;;;;;5048429;28;20422;-64
2022/10/20 12:22:52;;;;;;;14.98;13.38;;;12.70;99.90;;;;;;5049829;28;20057;-64
2022/10/20 12:25:17;;;;;;;14.27;11.95;;;12.70;99.90;;;;;;5049213;28;20087;-63
2022/10/20 12:27:43;;;;;;;13.38;11.93;;;12.70;99.90;;;;;;5049659;28;20500;-63
2022/10/20 12:30:27;;;;;;;14.73;12.15;;;12.60;99.90;;;;;;5049559;28;20044;-63
2022/10/20 12:32:57;;;;;;;13.88;12.18;;;12.60;99.90;;;;;;5049510;28;20450;-66
2022/10/20 12:35:22;;;;;;;16.25;13.23;;;12.60;99.90;;;;;;5049265;28;20048;-65
2022/10/20 12:37:57;;;;;;;16.88;13.00;;;12.50;99.90;;;;;;5049664;28;20079;-64
2022/10/20 12:40:29;;;;;;;18.10;13.77;;;12.50;99.90;;;;;;5049341;28;20045;-64
2022/10/20 12:42:55;;;;;;;18.42;13.68;;;12.50;99.90;;;;;;5048609;28;20513;-64
2022/10/20 12:45:43;;;;;;;15.45;12.98;;;12.50;99.90;;;;;;5049056;28;20041;-62
2022/10/20 12:48:19;;;;;;;17.30;14.27;;;12.50;99.90;;;;;;5049613;28;20120;-63
2022/10/20 12:50:48;;;;;;;14.73;13.23;;;12.50;99.90;;;;;;5049724;28;20051;-62
2022/10/20 12:53:16;;;;;;;15.43;13.43;;;12.40;99.90;;;;;;5049385;28;20033;-63
2022/10/20 12:55:45;;;;;;;15.15;13.50;;;12.40;99.90;;;;;;5047920;28;20436;-62
2022/10/20 12:58:17;;;;;;;18.95;14.20;;;12.40;99.90;;;;;;5048584;28;20099;-63